Time;durP1;ratioP1;P1;durP2;ratioP2;P2;SDS_P1;SDS_P2;PMS_P1;PMS_P2;Temp;Humidity;BMP_temperature;BMP_pressure;BME280_temperature;BME280_humidity;BME280_pressure;Samples;Min_cycle;Max_cycle;Signal;HPM_P1;HPM_P2
2021/08/25 00:03:31;;;;;;;15.55;11.27;;;;;;;17.10;68.56;102747.63;10472434;28;20554;-81
2021/08/25 00:08:32;;;;;;;12.38;10.27;;;;;;;16.69;69.15;102690.78;10491213;28;20092;-81
2021/08/25 00:13:32;;;;;;;14.35;11.95;;;;;;;17.05;69.51;102741.88;10456993;28;20036;-81
2021/08/25 00:18:33;;;;;;;11.63;10.43;;;;;;;16.70;68.61;102689.72;10457566;28;20149;-80
2021/08/25 00:23:40;;;;;;;16.02;12.38;;;;;;;17.01;69.55;102739.75;10471703;28;20380;-80
2021/08/25 00:28:41;;;;;;;20.08;13.93;;;;;;;16.89;69.08;102739.41;10452826;28;20060;-80
2021/08/25 00:33:43;;;;;;;33.92;15.02;;;;;;;16.86;69.14;102729.69;10486997;28;20056;-81
2021/08/25 00:38:43;;;;;;;15.32;11.85;;;;;;;16.83;69.20;102716.41;10489034;28;20044;-80
2021/08/25 00:43:44;;;;;;;16.92;14.63;;;;;;;16.78;68.91;102732.53;10469656;28;20464;-81
2021/08/25 00:48:52;;;;;;;15.88;14.00;;;;;;;16.72;69.03;102716.91;10473737;28;20075;-81
2021/08/25 00:53:53;;;;;;;16.35;13.43;;;;;;;16.63;70.08;102707.97;10475043;28;20048;-81
2021/08/25 00:58:54;;;;;;;22.55;15.15;;;;;;;16.64;69.69;102708.78;10471209;28;20441;-80
2021/08/25 01:03:57;;;;;;;23.30;15.27;;;;;;;16.52;69.48;102679.19;10471348;28;20036;-81
2021/08/25 01:09:02;;;;;;;19.70;17.05;;;;;;;16.65;69.66;102699.53;10472142;28;20035;-80
2021/08/25 01:14:03;;;;;;;20.63;15.68;;;;;;;16.59;68.60;102697.56;10475216;28;20051;-81
2021/08/25 01:19:04;;;;;;;29.58;16.42;;;;;;;16.54;70.36;102694.59;10491562;28;20037;-81
2021/08/25 01:24:05;;;;;;;23.27;15.63;;;;;;;16.57;70.23;102697.78;10474396;28;20449;-81
2021/08/25 01:29:05;;;;;;;27.85;17.23;;;;;;;16.57;69.36;102691.47;10489765;28;20471;-81
2021/08/25 01:34:06;;;;;;;21.98;16.85;;;;;;;16.58;70.04;102693.16;10488756;28;20387;-80
2021/08/25 01:39:08;;;;;;;19.63;15.95;;;;;;;16.52;69.06;102695.63;10494446;28;20542;-81
2021/08/25 01:44:09;;;;;;;22.48;17.48;;;;;;;16.55;70.28;102691.66;10477876;28;20040;-80
2021/08/25 01:49:10;;;;;;;22.17;17.23;;;;;;;16.48;69.81;102690.75;10478895;28;20376;-81
2021/08/25 01:54:12;;;;;;;28.17;17.45;;;;;;;16.43;69.99;102685.84;10479205;28;20052;-81
2021/08/25 01:59:12;;;;;;;24.75;17.85;;;;;;;16.44;69.92;102675.75;10460655;28;20411;-80
2021/08/25 02:04:14;;;;;;;23.73;17.67;;;;;;;16.34;69.49;102661.56;10478962;28;20135;-81
2021/08/25 02:09:15;;;;;;;22.73;15.77;;;;;;;16.19;69.69;102631.53;10495809;28;20040;-81
2021/08/25 02:14:16;;;;;;;26.58;16.50;;;;;;;15.97;69.22;102593.22;10480185;28;20390;-80
2021/08/25 02:19:16;;;;;;;31.75;18.65;;;;;;;16.17;69.15;102617.19;10497708;28;20040;-81
2021/08/25 02:24:17;;;;;;;21.42;17.08;;;;;;;16.30;68.85;102647.41;10480717;28;20035;-81
2021/08/25 02:29:18;;;;;;;30.58;18.27;;;;;;;16.27;69.10;102647.78;10478058;28;20053;-81
2021/08/25 02:34:18;;;;;;;27.65;17.38;;;;;;;16.27;68.91;102642.31;10480759;28;20106;-81
2021/08/25 02:39:19;;;;;;;29.13;17.60;;;;;;;16.23;68.68;102644.59;10498616;28;20116;-81
2021/08/25 02:44:19;;;;;;;20.30;17.05;;;;;;;16.16;68.42;102643.69;10463171;28;20075;-80
2021/08/25 02:49:20;;;;;;;22.02;17.77;;;;;;;16.15;68.33;102646.63;10497981;28;20028;-80
2021/08/25 02:54:20;;;;;;;27.63;20.30;;;;;;;15.97;68.41;102609.59;10481185;28;20457;-81
2021/08/25 02:59:21;;;;;;;21.17;18.27;;;;;;;16.12;69.85;102630.59;10481880;28;20094;-81
2021/08/25 03:04:31;;;;;;;25.90;20.02;;;;;;;16.13;69.16;102624.09;10482953;28;20037;-80
2021/08/25 03:09:32;;;;;;;26.02;22.05;;;;;;;15.92;69.71;102576.56;10482679;28;20032;-80
2021/08/25 03:14:33;;;;;;;35.10;19.63;;;;;;;16.12;69.23;102614.22;10500008;28;20044;-81
2021/08/25 03:19:33;;;;;;;23.13;20.02;;;;;;;16.14;69.13;102614.84;10482289;28;20036;-80
2021/08/25 03:24:34;;;;;;;27.38;22.10;;;;;;;16.14;69.54;102612.94;10499754;28;20403;-80
2021/08/25 03:29:35;;;;;;;33.53;21.95;;;;;;;16.09;69.58;102592.72;10480980;28;20143;-80
2021/08/25 03:34:36;;;;;;;29.55;21.63;;;;;;;16.23;69.49;102600.03;10482441;28;20040;-80
2021/08/25 03:39:37;;;;;;;31.08;21.25;;;;;;;16.25;69.48;102601.53;10499059;28;20068;-80
2021/08/25 03:44:38;;;;;;;25.55;22.70;;;;;;;16.30;69.78;102600.94;10498110;28;20123;-80
2021/08/25 03:49:38;;;;;;;27.65;23.63;;;;;;;16.37;70.08;102598.25;10481232;28;20036;-80
2021/08/25 03:54:39;;;;;;;36.30;26.70;;;;;;;16.37;70.14;102580.00;10481068;28;20032;-80
2021/08/25 03:59:39;;;;;;;33.78;25.85;;;;;;;16.75;70.09;102590.66;10479973;28;20040;-80
2021/08/25 04:04:40;;;;;;;48.95;29.92;;;;;;;16.81;70.06;102580.81;10482779;28;20039;-79
2021/08/25 04:09:41;;;;;;;43.15;30.15;;;;;;;16.56;70.26;102531.13;10481950;28;20036;-80
2021/08/25 04:14:41;;;;;;;46.40;29.80;;;;;;;16.94;70.95;102583.66;10499102;28;20055;-79
2021/08/25 04:19:42;;;;;;;62.60;30.45;;;;;;;17.07;70.73;102578.31;10480350;28;20033;-80
2021/08/25 04:24:45;;;;;;;50.20;34.72;;;;;;;16.56;71.00;102480.03;10464059;28;20038;-81
2021/08/25 04:29:45;;;;;;;41.53;29.45;;;;;;;17.02;70.65;102544.38;10462073;28;20488;-79
2021/08/25 04:34:46;;;;;;;63.58;32.40;;;;;;;17.15;71.38;102566.34;10476890;28;20056;-80
2021/08/25 04:39:46;;;;;;;47.22;32.25;;;;;;;16.48;71.07;102455.56;10457282;28;20029;-80
2021/08/25 04:44:47;;;;;;;95.78;35.78;;;;;;;16.88;70.70;102499.63;10397622;28;20140;-79
2021/08/25 04:49:47;;;;;;;47.95;29.45;;;;;;;17.39;70.91;102568.63;10491817;28;20035;-80
2021/08/25 04:55:10;;;;;;;59.33;31.63;;;;;;;17.42;70.02;102561.84;10472517;28;20112;-80
2021/08/25 05:00:11;;;;;;;60.05;34.60;;;;;;;17.56;70.02;102571.00;10488008;28;20044;-80
2021/08/25 05:05:11;;;;;;;64.75;35.92;;;;;;;17.50;70.82;102563.59;10472569;28;20363;-80
2021/08/25 05:10:12;;;;;;;60.63;32.72;;;;;;;17.58;70.72;102560.69;10506517;28;20032;-82
2021/08/25 05:15:12;;;;;;;52.75;31.15;;;;;;;17.53;70.75;102568.69;10521719;28;20055;-81
2021/08/25 05:20:13;;;;;;;53.85;29.45;;;;;;;17.62;70.37;102567.47;10504289;28;20051;-80
2021/08/25 05:25:13;;;;;;;44.38;31.20;;;;;;;17.70;70.45;102567.25;10539802;28;20412;-80
2021/08/25 05:30:15;;;;;;;63.15;32.28;;;;;;;17.64;70.37;102547.03;10503481;28;20143;-81
2021/08/25 05:35:16;;;;;;;66.38;32.42;;;;;;;17.78;70.25;102577.25;10520890;28;20088;-80
2021/08/25 05:40:18;;;;;;;34.30;27.27;;;;;;;17.70;71.18;102574.66;10539221;28;20448;-80
2021/08/25 05:45:20;;;;;;;41.17;24.83;;;;;;;17.75;71.17;102569.41;10537328;28;20056;-80
2021/08/25 05:50:20;;;;;;;57.70;30.75;;;;;;;17.53;70.53;102508.41;10501790;28;20035;-80
2021/08/25 05:55:21;;;;;;;37.13;28.77;;;;;;;17.67;70.24;102521.94;10518404;28;20058;-81
2021/08/25 06:00:22;;;;;;;33.42;24.92;;;;;;;17.95;70.42;102575.00;10484456;28;20055;-81
2021/08/25 06:05:24;;;;;;;39.58;26.35;;;;;;;18.14;70.37;102571.47;10519802;28;20040;-80
2021/08/25 06:10:24;;;;;;;32.50;25.05;;;;;;;17.99;69.88;102529.66;10519956;28;20038;-80
2021/08/25 06:15:27;;;;;;;39.03;24.73;;;;;;;18.43;69.59;102574.88;10502352;28;20036;-80
2021/08/25 06:20:34;;;;;;;35.50;25.38;;;;;;;18.41;69.25;102549.56;10537436;28;20039;-80
2021/08/25 06:25:38;;;;;;;30.20;24.65;;;;;;;18.86;68.89;102569.00;10516537;28;20063;-81
2021/08/25 06:30:38;;;;;;;40.35;28.23;;;;;;;18.85;68.60;102561.84;10516889;28;20055;-81
2021/08/25 06:35:39;;;;;;;31.58;22.08;;;;;;;19.01;68.60;102572.38;10501222;28;20446;-81
2021/08/25 06:40:39;;;;;;;37.88;25.65;;;;;;;19.20;68.42;102577.00;10519920;28;20032;-81
2021/08/25 06:45:40;;;;;;;30.95;22.95;;;;;;;19.34;68.19;102577.84;10517824;28;20047;-81
2021/08/25 06:50:40;;;;;;;31.27;22.65;;;;;;;19.77;67.27;102585.53;10521921;28;20118;-81
2021/08/25 06:55:41;;;;;;;29.40;22.42;;;;;;;19.88;66.33;102578.53;10504089;28;20044;-80
2021/08/25 07:00:41;;;;;;;22.95;19.77;;;;;;;19.80;66.82;102590.59;10520588;28;20062;-81
2021/08/25 07:05:42;;;;;;;24.80;19.55;;;;;;;19.79;66.67;102585.31;10538659;28;20120;-81
2021/08/25 07:10:42;;;;;;;22.98;18.00;;;;;;;19.46;66.17;102528.53;10520474;28;20044;-81
2021/08/25 07:15:43;;;;;;;26.60;17.85;;;;;;;19.64;66.37;102580.94;10520300;28;20145;-81
2021/08/25 07:20:48;;;;;;;23.27;16.15;;;;;;;19.56;66.37;102564.66;10521118;28;20395;-80
2021/08/25 07:25:49;;;;;;;24.65;17.55;;;;;;;20.37;65.38;102580.53;10522178;28;20036;-81
2021/08/25 07:30:50;;;;;;;18.77;16.30;;;;;;;19.78;65.59;102512.97;10503619;28;20506;-80
2021/08/25 07:35:50;;;;;;;18.60;16.50;;;;;;;20.23;66.08;102592.72;10520353;28;20043;-81
2021/08/25 07:40:51;;;;;;;21.25;16.73;;;;;;;20.20;65.77;102583.00;10542115;28;20103;-80
2021/08/25 07:45:52;;;;;;;19.38;17.25;;;;;;;20.55;66.16;102555.06;10524208;28;20448;-80
2021/08/25 07:50:53;;;;;;;26.40;17.58;;;;;;;20.88;64.96;102584.19;10505252;28;20024;-80
2021/08/25 07:55:54;;;;;;;23.05;16.42;;;;;;;20.95;64.37;102576.72;10520517;28;20051;-81
2021/08/25 08:00:55;;;;;;;19.45;16.27;;;;;;;21.45;64.51;102589.59;10536360;28;20164;-81
2021/08/25 08:05:55;;;;;;;22.73;13.88;;;;;;;21.51;62.09;102550.94;10518652;28;20459;-81
2021/08/25 08:10:56;;;;;;;18.38;15.13;;;;;;;22.33;62.21;102583.56;10486836;28;20032;-80
2021/08/25 08:15:57;;;;;;;17.95;13.70;;;;;;;23.61;60.17;102509.22;10504701;28;20047;-80
2021/08/25 08:20:57;;;;;;;22.83;16.05;;;;;;;24.85;57.42;102488.16;10503117;28;20481;-81
2021/08/25 08:25:58;;;;;;;19.00;13.65;;;;;;;24.53;56.58;102560.78;10520172;28;20180;-81
2021/08/25 08:30:58;;;;;;;28.55;14.32;;;;;;;24.93;58.93;102540.38;10518331;28;20438;-81
2021/08/25 08:35:59;;;;;;;15.40;11.15;;;;;;;25.17;54.49;102549.34;10502184;28;20055;-81
2021/08/25 08:40:59;;;;;;;15.35;13.35;;;;;;;25.14;55.34;102539.59;10519192;28;20036;-81
2021/08/25 08:46:00;;;;;;;12.38;11.02;;;;;;;25.12;55.23;102540.94;10518852;28;20455;-80
2021/08/25 08:51:00;;;;;;;13.52;10.35;;;;;;;26.73;52.50;102536.63;10537858;28;20032;-81
2021/08/25 08:56:01;;;;;;;12.55;11.23;;;;;;;27.75;54.42;102528.81;10503317;28;20479;-80
2021/08/25 09:01:01;;;;;;;11.50;9.65;;;;;;;26.42;51.39;102530.81;10534656;28;20094;-81
2021/08/25 09:06:03;;;;;;;13.77;10.85;;;;;;;26.71;51.67;102536.06;10516672;28;20105;-81
2021/08/25 09:11:14;;;;;;;9.23;7.88;;;;;;;27.70;52.51;102527.97;10533145;28;20028;-81
2021/08/25 09:16:32;;;;;;;21.05;8.30;;;;;;;27.16;54.93;102514.41;10516243;28;20043;-81
2021/08/25 09:21:33;;;;;;;8.57;7.78;;;;;;;26.73;53.70;102450.47;10535511;28;20109;-81
2021/08/25 09:26:34;;;;;;;9.68;7.25;;;;;;;27.94;49.46;102498.53;10534600;28;20132;-81
2021/08/25 09:31:42;;;;;;;6.00;5.45;;;;;;;28.71;46.18;102495.75;10532725;28;20059;-81
2021/08/25 09:36:42;;;;;;;6.30;5.70;;;;;;;29.06;44.10;102502.41;10516021;28;20112;-81
2021/08/25 09:41:55;;;;;;;9.82;5.47;;;;;;;28.38;47.46;102484.06;10533922;28;20024;-81
2021/08/25 09:46:55;;;;;;;5.57;5.13;;;;;;;29.65;45.25;102459.75;10500846;28;20036;-81
2021/08/25 09:51:55;;;;;;;5.78;4.40;;;;;;;31.00;41.18;102487.91;10515742;28;20055;-81
2021/08/25 09:56:57;;;;;;;4.85;4.35;;;;;;;30.89;41.84;102488.31;10535049;28;20048;-81
2021/08/25 10:01:58;;;;;;;5.00;3.78;;;;;;;31.00;41.38;102489.88;10539407;28;20036;-81
2021/08/25 10:06:58;;;;;;;12.45;4.72;;;;;;;31.55;42.19;102486.66;10508154;28;20051;-81
2021/08/25 10:11:59;;;;;;;12.73;3.72;;;;;;;30.91;44.45;102435.69;10523233;28;20032;-81
2021/08/25 10:17:00;;;;;;;6.18;3.65;;;;;;;30.74;42.25;102490.13;10520714;28;20067;-82
2021/08/25 10:22:10;;;;;;;6.45;4.07;;;;;;;30.11;46.12;102442.63;10520669;28;20478;-82
2021/08/25 10:27:11;;;;;;;6.25;3.92;;;;;;;30.21;42.84;102467.72;10522707;28;20123;-81
2021/08/25 10:32:11;;;;;;;3.85;3.15;;;;;;;30.55;39.51;102441.69;10541259;28;20465;-81
2021/08/25 10:37:12;;;;;;;2.60;2.50;;;;;;;30.93;41.11;102445.47;10522460;28;20161;-81
2021/08/25 10:42:12;;;;;;;2.83;2.63;;;;;;;32.19;40.15;102451.50;10522702;28;20044;-81
2021/08/25 10:47:14;;;;;;;5.40;2.90;;;;;;;31.57;40.35;102446.03;10523357;28;20058;-81
2021/08/25 10:52:14;;;;;;;2.30;2.20;;;;;;;31.90;39.98;102452.53;10523811;28;20028;-81
2021/08/25 10:57:19;;;;;;;4.75;2.72;;;;;;;31.38;41.86;102389.19;10521015;28;20501;-81
2021/08/25 11:02:19;;;;;;;2.90;2.63;;;;;;;32.37;38.21;102413.31;10522191;28;20028;-81
2021/08/25 11:07:20;;;;;;;6.07;2.63;;;;;;;32.93;46.94;102412.25;10520507;28;20039;-81
2021/08/25 11:12:23;;;;;;;1.75;1.70;;;;;;;31.87;39.77;102413.06;10539077;28;20417;-81
2021/08/25 11:17:33;;;;;;;3.15;2.90;;;;;;;32.87;41.72;102411.50;10519944;28;20036;-81
2021/08/25 11:22:35;;;;;;;2.25;1.92;;;;;;;32.29;39.33;102374.78;10521761;28;20028;-81
2021/08/25 11:27:45;;;;;;;2.78;2.58;;;;;;;32.35;42.65;102393.16;10503582;28;20036;-81
2021/08/25 11:33:08;;;;;;;6.10;2.22;;;;;;;32.94;41.99;102391.44;10519993;28;20052;-81
2021/08/25 11:38:15;;;;;;;2.03;1.83;;;;;;;33.39;37.00;102380.34;10518352;28;20366;-81
2021/08/25 11:43:34;;;;;;;2.63;2.42;;;;;;;32.89;42.83;102383.13;10500732;28;20093;-81
2021/08/25 11:48:35;;;;;;;3.35;2.50;;;;;;;31.73;38.45;102357.81;10517221;28;20069;-82
2021/08/25 11:53:38;;;;;;;11.57;2.33;;;;;;;31.88;38.87;102370.78;10500461;28;20040;-82
2021/08/25 11:58:41;;;;;;;2.33;2.03;;;;;;;32.03;38.81;102326.78;10501829;28;20426;-81
2021/08/25 12:03:44;;;;;;;2.65;2.15;;;;;;;31.97;39.01;102351.28;10537234;28;20445;-81
2021/08/25 12:09:06;;;;;;;1.48;1.48;;;;;;;30.96;45.57;102358.16;10521917;28;20024;-81
2021/08/25 12:14:07;;;;;;;1.92;1.13;;;;;;;30.57;41.11;102358.34;10504889;28;20049;-81
2021/08/25 12:19:07;;;;;;;4.57;1.35;;;;;;;30.37;40.72;102361.38;10539864;28;20063;-81
2021/08/25 12:24:09;;;;;;;1.40;1.40;;;;;;;30.85;41.48;102352.97;10536925;28;20425;-81
2021/08/25 12:29:10;;;;;;;3.85;1.80;;;;;;;31.00;38.76;102302.41;10518725;28;20382;-81
2021/08/25 12:34:16;;;;;;;1.50;1.25;;;;;;;31.95;38.19;102348.78;10519045;28;20036;-81
2021/08/25 12:39:19;;;;;;;1.88;1.77;;;;;;;31.99;38.75;102315.38;10537686;28;20027;-81
2021/08/25 12:44:19;;;;;;;2.25;1.60;;;;;;;32.37;38.72;102344.06;10486947;28;20036;-81
2021/08/25 12:49:24;;;;;;;1.73;1.23;;;;;;;31.89;41.32;102346.38;10519468;28;20040;-81
2021/08/25 12:54:24;;;;;;;1.42;1.27;;;;;;;32.05;37.69;102330.13;10502007;28;20108;-80
2021/08/25 12:59:25;;;;;;;2.40;1.25;;;;;;;31.92;37.44;102340.16;10503546;28;20093;-82
2021/08/25 13:04:25;;;;;;;11.48;1.73;;;;;;;31.36;37.10;102287.88;10519679;28;20035;-81
2021/08/25 13:09:25;;;;;;;1.08;0.98;;;;;;;30.93;38.79;102338.34;10537015;28;20028;-81
2021/08/25 13:14:26;;;;;;;4.65;0.95;;;;;;;31.06;38.24;102317.16;10501054;28;20024;-81
2021/08/25 13:19:26;;;;;;;0.93;0.82;;;;;;;30.39;38.10;102311.59;10502018;28;20434;-81
2021/08/25 13:24:27;;;;;;;2.97;1.13;;;;;;;30.80;39.26;102309.16;10518439;28;20056;-81
2021/08/25 13:29:27;;;;;;;0.80;0.73;;;;;;;30.83;38.50;102302.13;10500035;28;20116;-81
2021/08/25 13:34:28;;;;;;;1.85;1.40;;;;;;;31.12;46.21;102296.38;10522945;28;20056;-81
2021/08/25 13:39:28;;;;;;;0.70;0.70;;;;;;;30.07;39.41;102287.91;10507717;28;20156;-81
2021/08/25 13:44:29;;;;;;;1.85;1.13;;;;;;;29.74;41.75;102279.31;10542847;28;20374;-81
2021/08/25 13:49:29;;;;;;;2.05;1.30;;;;;;;29.96;40.51;102297.50;10542477;28;20417;-81
2021/08/25 13:54:29;;;;;;;0.68;0.68;;;;;;;29.91;42.46;102289.19;10524052;28;20563;-81
2021/08/25 13:59:30;;;;;;;1.55;0.85;;;;;;;30.08;39.04;102256.03;10522892;28;20475;-81
2021/08/25 14:04:30;;;;;;;4.90;0.80;;;;;;;28.46;40.36;102294.06;10505602;28;20079;-81
2021/08/25 14:09:31;;;;;;;1.42;0.65;;;;;;;28.79;43.80;102274.94;10503536;28;20554;-81
2021/08/25 14:14:32;;;;;;;0.77;0.68;;;;;;;27.90;43.02;102274.69;10519606;28;20121;-81
2021/08/25 14:19:32;;;;;;;0.60;0.60;;;;;;;28.09;50.95;102262.97;10503383;28;20427;-80
2021/08/25 14:24:32;;;;;;;2.38;1.10;;;;;;;27.86;44.70;102256.88;10537862;28;20032;-81
2021/08/25 14:29:33;;;;;;;0.77;0.77;;;;;;;27.09;46.66;102234.63;10517439;28;20101;-80
2021/08/25 14:34:33;;;;;;;0.60;0.60;;;;;;;26.76;48.66;102238.72;10539061;28;20064;-81
2021/08/25 14:39:34;;;;;;;1.63;1.08;;;;;;;26.77;46.08;102217.31;10519688;28;20072;-80
2021/08/25 14:44:34;;;;;;;3.70;1.02;;;;;;;26.10;47.25;102219.00;10534761;28;20051;-80
2021/08/25 14:49:37;;;;;;;0.60;0.57;;;;;;;25.05;48.25;102103.19;10535362;28;20078;-80
2021/08/25 14:54:37;;;;;;;0.45;0.45;;;;;;;25.91;51.03;102213.06;10499774;28;20035;-80
2021/08/25 14:59:38;;;;;;;1.35;0.93;;;;;;;26.09;47.40;102214.56;10534498;28;20146;-80
2021/08/25 15:04:38;;;;;;;1.17;1.13;;;;;;;25.59;47.97;102169.59;10516599;28;20088;-80
2021/08/25 15:09:40;;;;;;;0.88;0.88;;;;;;;25.34;47.95;102216.56;10516530;28;20072;-80
2021/08/25 15:14:41;;;;;;;1.10;0.90;;;;;;;25.07;48.36;102217.38;10516282;28;20126;-80
2021/08/25 15:19:42;;;;;;;1.23;0.60;;;;;;;24.26;49.95;102124.03;10534489;28;20081;-80
2021/08/25 15:24:42;;;;;;;1.08;0.95;;;;;;;24.30;50.02;102202.69;10519028;28;20127;-80
2021/08/25 15:29:43;;;;;;;0.80;0.77;;;;;;;23.98;51.20;102215.53;10503170;28;20036;-80
2021/08/25 15:34:43;;;;;;;1.42;1.02;;;;;;;23.80;51.43;102202.84;10518134;28;20137;-81
2021/08/25 15:39:44;;;;;;;0.90;0.82;;;;;;;23.16;52.64;102134.94;10534921;28;20036;-81
2021/08/25 15:44:46;;;;;;;0.98;0.93;;;;;;;23.34;52.84;102180.00;10516553;28;20455;-80
2021/08/25 15:49:47;;;;;;;2.30;1.10;;;;;;;23.11;53.05;102183.78;10534790;28;20044;-80
2021/08/25 15:54:47;;;;;;;0.50;0.50;;;;;;;23.03;52.56;102182.25;10534325;28;20456;-80
2021/08/25 15:59:51;;;;;;;0.73;0.73;;;;;;;22.89;53.26;102167.06;10515490;28;20032;-80
2021/08/25 16:04:52;;;;;;;0.50;0.50;;;;;;;22.88;54.41;102180.03;10516054;28;20099;-80
2021/08/25 16:09:52;;;;;;;0.75;0.75;;;;;;;22.55;52.92;102179.94;10534659;28;20073;-80
2021/08/25 16:14:53;;;;;;;0.60;0.60;;;;;;;22.23;53.12;102167.47;10514603;28;20152;-80
2021/08/25 16:19:54;;;;;;;1.25;0.88;;;;;;;21.69;54.61;102149.44;10532959;28;20039;-80
2021/08/25 16:24:55;;;;;;;0.68;0.68;;;;;;;21.64;56.41;102165.88;10512696;28;20088;-80
2021/08/25 16:29:55;;;;;;;0.60;0.60;;;;;;;21.52;56.73;102152.94;10528188;28;20083;-80
2021/08/25 16:34:55;;;;;;;0.70;0.70;;;;;;;21.47;55.76;102136.28;10510067;28;20111;-80
2021/08/25 16:39:56;;;;;;;0.93;0.93;;;;;;;21.70;55.72;102148.38;10511231;28;20529;-80
2021/08/25 16:44:56;;;;;;;1.55;0.85;;;;;;;21.72;54.57;102138.78;10531291;28;20073;-80
2021/08/25 16:49:57;;;;;;;1.52;1.30;;;;;;;21.55;54.40;102094.56;10531457;28;20105;-80
2021/08/25 16:54:58;;;;;;;0.70;0.70;;;;;;;21.85;53.25;102121.13;10530517;28;20181;-80
2021/08/25 17:00:06;;;;;;;4.28;2.50;;;;;;;21.74;54.99;102120.06;10529061;28;20036;-80
2021/08/25 17:05:06;;;;;;;1.10;1.10;;;;;;;21.45;54.36;102121.09;10494849;28;20055;-80
2021/08/25 17:10:07;;;;;;;4.00;0.98;;;;;;;21.37;56.01;102111.25;10518941;28;20084;-80
2021/08/25 17:15:08;;;;;;;1.13;0.95;;;;;;;20.93;55.59;102041.03;10538745;28;20044;-80
2021/08/25 17:20:10;;;;;;;0.93;0.93;;;;;;;20.76;56.17;102032.66;10519268;28;20044;-80
2021/08/25 17:25:11;;;;;;;1.80;1.50;;;;;;;20.74;56.86;102051.31;10519926;28;20427;-80
2021/08/25 17:30:12;;;;;;;3.90;1.60;;;;;;;20.72;57.72;102086.50;10537193;28;20058;-79
2021/08/25 17:35:12;;;;;;;2.67;1.88;;;;;;;20.90;57.89;102109.28;10519227;28;20032;-80
2021/08/25 17:40:14;;;;;;;5.97;2.03;;;;;;;20.89;57.04;102090.22;10537132;28;20089;-80
2021/08/25 17:45:15;;;;;;;2.42;2.17;;;;;;;20.59;56.66;102052.63;10537387;28;20114;-80
2021/08/25 17:50:15;;;;;;;2.28;1.95;;;;;;;21.06;56.32;102091.22;10501503;28;20176;-80
2021/08/25 17:55:18;;;;;;;1.90;1.73;;;;;;;21.02;56.35;102083.66;10537091;28;20059;-81
2021/08/25 18:00:25;;;;;;;9.55;2.13;;;;;;;20.81;57.53;102082.34;10536793;28;20135;-80
2021/08/25 18:05:27;;;;;;;1.63;1.50;;;;;;;20.35;57.30;102004.91;10520547;28;20032;-80
2021/08/25 18:10:27;;;;;;;2.53;2.10;;;;;;;20.92;56.75;102073.25;10521954;28;20044;-80
2021/08/25 18:15:28;;;;;;;2.40;2.20;;;;;;;20.86;57.40;102074.19;10521791;28;20065;-81
2021/08/25 18:20:28;;;;;;;1.55;1.45;;;;;;;20.68;58.33;102069.63;10522296;28;20146;-80
2021/08/25 18:25:29;;;;;;;1.17;1.17;;;;;;;20.43;60.01;102058.78;10539393;28;20048;-80
2021/08/25 18:30:29;;;;;;;4.75;2.00;;;;;;;20.41;60.34;102059.00;10538657;28;20413;-79
2021/08/25 18:35:32;;;;;;;1.35;1.25;;;;;;;20.47;59.81;102056.38;10520964;28;20218;-80
2021/08/25 18:40:33;;;;;;;1.52;1.42;;;;;;;19.81;60.15;101957.28;10539026;28;20040;-80
2021/08/25 18:45:34;;;;;;;1.52;1.40;;;;;;;20.38;60.21;102042.13;10479492;28;20048;-80
2021/08/25 18:50:34;;;;;;;1.50;1.45;;;;;;;20.14;61.40;102039.31;10522502;28;20464;-77
2021/08/25 18:55:35;;;;;;;3.92;2.28;;;;;;;19.97;61.91;102036.38;10544114;28;20119;-78
2021/08/25 19:00:35;;;;;;;7.00;1.63;;;;;;;20.05;61.53;102032.44;10541119;28;20471;-78
2021/08/25 19:05:36;;;;;;;3.03;1.73;;;;;;;20.07;61.31;102027.56;10537699;28;20122;-78
2021/08/25 19:10:36;;;;;;;3.90;1.50;;;;;;;19.24;63.20;101973.22;10536359;28;20028;-78
2021/08/25 19:15:37;;;;;;;4.05;1.27;;;;;;;19.84;62.78;102025.53;10521372;28;20086;-78
2021/08/25 19:20:38;;;;;;;3.55;1.65;;;;;;;19.82;62.49;102016.69;10537021;28;20028;-78
2021/08/25 19:25:39;;;;;;;5.90;2.35;;;;;;;19.80;62.07;101993.25;10501198;28;20043;-79
2021/08/25 19:30:40;;;;;;;2.35;2.20;;;;;;;19.88;63.05;102028.69;10512002;28;20051;-79
2021/08/25 19:35:42;;;;;;;3.22;2.60;;;;;;;19.81;63.12;102017.75;10533833;28;20036;-78
2021/08/25 19:40:43;;;;;;;6.38;2.60;;;;;;;19.67;63.23;102022.59;10514133;28;20044;-80
2021/08/25 19:45:43;;;;;;;2.38;2.17;;;;;;;19.02;65.63;102019.50;10499475;28;20127;-79
2021/08/25 19:50:44;;;;;;;1.88;1.23;;;;;;;18.90;67.09;102022.16;10518389;28;20345;-79
2021/08/25 19:55:44;;;;;;;1.88;1.35;;;;;;;18.90;67.11;102010.34;10518070;28;20119;-78
2021/08/25 20:00:45;;;;;;;5.30;2.05;;;;;;;19.09;66.17;102002.97;10498524;28;20036;-78
2021/08/25 20:05:45;;;;;;;3.00;2.05;;;;;;;18.47;65.81;101902.22;10532558;28;20164;-78
2021/08/25 20:10:46;;;;;;;1.65;1.30;;;;;;;19.16;65.50;102020.22;10529582;28;20094;-78
2021/08/25 20:15:46;;;;;;;4.70;2.83;;;;;;;19.14;65.47;102014.94;10529868;28;20036;-78
2021/08/25 20:20:47;;;;;;;13.20;2.35;;;;;;;19.16;64.85;101999.06;10494625;28;20028;-78
2021/08/25 20:25:48;;;;;;;3.28;2.97;;;;;;;19.07;65.13;101975.72;10528551;28;20125;-77
2021/08/25 20:30:48;;;;;;;6.60;3.75;;;;;;;18.36;64.78;101850.84;10508629;28;20122;-78
2021/08/25 20:35:49;;;;;;;4.78;4.00;;;;;;;19.29;64.14;101996.19;10508829;28;20130;-79
2021/08/25 20:40:49;;;;;;;5.38;3.92;;;;;;;18.98;64.65;101953.22;10507092;28;20408;-78
2021/08/25 20:45:53;;;;;;;4.05;2.55;;;;;;;19.21;65.27;101980.03;10492443;28;20032;-78
2021/08/25 20:50:53;;;;;;;3.08;2.58;;;;;;;19.13;65.95;101972.06;10511020;28;20040;-79
2021/08/25 20:55:56;;;;;;;7.25;2.45;;;;;;;19.10;66.22;101978.03;10531162;28;20122;-79
2021/08/25 21:00:57;;;;;;;3.80;1.95;;;;;;;18.74;66.23;101900.09;10532784;28;20036;-82
2021/08/25 21:05:57;;;;;;;5.80;2.50;;;;;;;19.01;66.50;101961.00;10514626;28;20379;-78
2021/08/25 21:10:58;;;;;;;4.20;2.80;;;;;;;19.00;66.78;101964.81;10532281;28;20168;-79
2021/08/25 21:15:59;;;;;;;11.05;2.95;;;;;;;18.98;66.69;101957.88;10513123;28;20515;-79
2021/08/25 21:20:59;;;;;;;8.55;3.65;;;;;;;19.01;66.54;101943.69;10511588;28;20044;-79
2021/08/25 21:25:59;;;;;;;5.55;3.83;;;;;;;18.86;66.44;101916.63;10497066;28;20100;-79
2021/08/25 21:31:04;;;;;;;6.45;4.35;;;;;;;18.76;66.95;101889.72;10512343;28;20056;-79
2021/08/25 21:36:04;;;;;;;3.83;2.58;;;;;;;18.88;67.95;101928.22;10530665;28;20032;-79
2021/08/25 21:41:05;;;;;;;9.98;3.88;;;;;;;18.71;68.65;101930.69;10492274;28;20028;-80
2021/08/25 21:46:06;;;;;;;13.95;3.40;;;;;;;18.90;68.73;101922.50;10506986;28;20124;-80
2021/08/25 21:51:06;;;;;;;4.43;2.72;;;;;;;18.90;68.03;101911.53;10490197;28;20044;-79
2021/08/25 21:56:07;;;;;;;5.90;2.35;;;;;;;18.76;67.85;101856.81;10497412;28;20043;-79
2021/08/25 22:01:12;;;;;;;6.13;2.88;;;;;;;19.20;67.48;101906.09;10515766;28;20156;-80
2021/08/25 22:06:15;;;;;;;8.20;2.47;;;;;;;19.15;67.54;101912.28;10501076;28;20141;-79
2021/08/25 22:11:16;;;;;;;7.57;1.50;;;;;;;19.05;68.14;101915.56;10518165;28;20060;-79
2021/08/25 22:16:16;;;;;;;13.88;1.60;;;;;;;19.07;67.77;101904.34;10517893;28;20126;-80
2021/08/25 22:21:17;;;;;;;2.72;0.90;;;;;;;18.71;67.43;101814.63;10517471;28;20072;-79
2021/08/25 22:26:17;;;;;;;2.80;1.58;;;;;;;19.23;67.58;101895.47;10517952;28;20127;-79
2021/08/25 22:31:18;;;;;;;1.42;1.33;;;;;;;19.17;67.82;101887.34;10534889;28;20128;-79
2021/08/25 22:36:19;;;;;;;2.85;1.45;;;;;;;19.15;67.98;101890.31;10517995;28;20032;-79
2021/08/25 22:41:19;;;;;;;1.30;1.20;;;;;;;18.97;68.99;101879.34;10538476;28;20067;-80
2021/08/25 22:46:20;;;;;;;0.95;0.95;;;;;;;19.03;68.47;101878.44;10503581;28;20448;-80
2021/08/25 22:51:20;;;;;;;1.38;0.95;;;;;;;19.03;68.72;101862.78;10537297;28;20115;-78
2021/08/25 22:56:21;;;;;;;0.80;0.80;;;;;;;19.13;68.47;101859.50;10536337;28;20057;-79